createdAt,value
2022-08-08T00:02:03.324Z,10.56
2022-08-08T00:04:32.928Z,10.54
2022-08-08T00:07:40.153Z,10.52
2022-08-08T00:10:28.214Z,10.52
2022-08-08T00:13:20.703Z,10.52
2022-08-08T00:16:13.208Z,10.48
2022-08-08T00:18:43.947Z,10.49
2022-08-08T00:21:19.885Z,10.47
2022-08-08T00:23:57.934Z,10.50
2022-08-08T00:26:35.829Z,10.47
2022-08-08T00:29:17.481Z,10.48
2022-08-08T00:32:14.899Z,10.49
2022-08-08T00:35:18.834Z,10.50
2022-08-08T00:38:03.242Z,10.52
2022-08-08T00:41:12.840Z,10.46
2022-08-08T00:43:46.294Z,10.39
2022-08-08T00:46:56.952Z,10.35
2022-08-08T00:49:50.380Z,10.35
2022-08-08T00:52:48.858Z,10.32
2022-08-08T00:55:53.852Z,10.29
2022-08-08T00:58:58.456Z,10.28
2022-08-08T01:01:37.967Z,10.28
2022-08-08T01:04:29.887Z,10.27
2022-08-08T01:07:01.458Z,10.23
2022-08-08T01:09:53.326Z,10.20
2022-08-08T01:12:43.268Z,10.20
2022-08-08T01:15:37.368Z,10.21
2022-08-08T01:18:54.834Z,10.21
2022-08-08T01:22:12.461Z,10.23
2022-08-08T01:24:54.139Z,10.26
2022-08-08T01:27:44.363Z,10.27
2022-08-08T01:30:15.488Z,10.24
2022-08-08T01:36:12.916Z,10.18
2022-08-08T01:38:58.928Z,10.14
2022-08-08T01:41:38.154Z,10.12
2022-08-08T01:44:42.609Z,10.11
2022-08-08T01:48:14.499Z,10.10
2022-08-08T01:50:12.648Z,10.08
2022-08-08T01:55:15.177Z,10.01
2022-08-08T01:56:54.284Z,9.96
2022-08-08T02:00:01.605Z,9.95
2022-08-08T02:02:42.503Z,9.96
2022-08-08T02:05:25.297Z,9.95
2022-08-08T02:08:33.714Z,9.94
2022-08-08T02:11:23.733Z,9.96
2022-08-08T02:14:56.039Z,9.96
2022-08-08T02:17:36.447Z,9.95
2022-08-08T02:21:01.932Z,9.93
2022-08-08T02:23:32.215Z,9.93
2022-08-08T02:26:10.920Z,9.87
2022-08-08T02:29:18.717Z,9.83
2022-08-08T02:32:09.266Z,9.83
2022-08-08T02:35:10.703Z,9.80
2022-08-08T02:38:00.270Z,9.79
2022-08-08T02:40:49.954Z,9.76
2022-08-08T02:44:38.333Z,9.72
2022-08-08T02:47:04.228Z,9.74
2022-08-08T02:49:57.855Z,9.71
2022-08-08T02:52:43.643Z,9.76
2022-08-08T02:55:57.904Z,9.77
2022-08-08T02:58:54.521Z,9.83
2022-08-08T03:02:02.528Z,9.85
2022-08-08T03:05:09.035Z,9.88
2022-08-08T03:07:57.712Z,9.91
2022-08-08T03:10:44.247Z,9.96
2022-08-08T03:15:53.712Z,9.98
2022-08-08T03:16:48.602Z,10.00
2022-08-08T03:19:27.834Z,10.02
2022-08-08T03:21:59.582Z,10.01
2022-08-08T03:24:28.678Z,10.02
2022-08-08T03:27:19.121Z,10.02
2022-08-08T03:29:56.850Z,10.02
2022-08-08T03:32:47.340Z,10.05
2022-08-08T03:46:58.703Z,10.21
2022-08-08T03:49:56.706Z,10.25
2022-08-08T03:52:14.132Z,10.30
2022-08-08T03:55:01.595Z,10.35
2022-08-08T03:58:30.318Z,10.44
2022-08-08T04:00:18.953Z,10.47
2022-08-08T04:03:11.338Z,10.58
2022-08-08T04:05:39.936Z,10.62
2022-08-08T04:08:32.965Z,10.68
2022-08-08T04:11:11.118Z,10.73
2022-08-08T04:14:03.509Z,10.87
2022-08-08T04:16:38.909Z,10.92
2022-08-08T04:19:23.905Z,11.02
2022-08-08T04:21:54.270Z,11.06
2022-08-08T04:24:29.438Z,11.17
2022-08-08T04:27:01.052Z,11.23
2022-08-08T04:29:33.253Z,11.34
2022-08-08T04:32:04.952Z,11.39
2022-08-08T04:34:55.404Z,11.53
2022-08-08T04:37:26.310Z,11.63
2022-08-08T04:40:07.106Z,11.74
2022-08-08T04:42:36.743Z,11.80
2022-08-08T04:45:05.959Z,-144.48
2022-08-08T04:47:36.701Z,-144.48
2022-08-08T04:50:24.464Z,-144.48
2022-08-08T04:53:04.823Z,-144.48
2022-08-08T04:55:47.152Z,-144.48
2022-08-08T04:58:17.510Z,-144.48
2022-08-08T05:00:45.148Z,-144.48
2022-08-08T05:03:19.171Z,-144.48
2022-08-08T05:06:25.441Z,-144.48
2022-08-08T05:08:53.174Z,-144.48
2022-08-08T05:11:23.871Z,-144.48
2022-08-08T05:13:57.809Z,-144.48
2022-08-08T05:16:51.607Z,-144.48
2022-08-08T05:20:10.476Z,-144.48
2022-08-08T05:22:13.293Z,-144.48
2022-08-08T05:24:57.775Z,-144.48
2022-08-08T05:27:33.531Z,-144.48
2022-08-08T05:30:29.758Z,-144.48
2022-08-08T05:33:03.393Z,-144.48
2022-08-08T05:37:52.299Z,22.19
2022-08-08T05:40:27.641Z,22.87
2022-08-08T05:42:59.348Z,22.81
2022-08-08T05:45:43.017Z,22.44
2022-08-08T05:48:28.436Z,21.97
2022-08-08T05:50:59.078Z,21.61
2022-08-08T05:54:24.150Z,21.43
2022-08-08T05:56:27.328Z,21.12
2022-08-08T05:59:06.132Z,20.73
2022-08-08T06:01:56.577Z,20.26
2022-08-08T06:04:27.307Z,20.50
2022-08-08T06:07:00.439Z,21.26
2022-08-08T06:09:59.383Z,22.20
2022-08-08T06:12:29.542Z,23.36
2022-08-08T06:15:02.794Z,23.69
2022-08-08T06:17:51.632Z,24.06
2022-08-08T06:20:21.476Z,24.21
2022-08-08T06:22:50.183Z,24.43
2022-08-08T06:25:18.292Z,24.67
2022-08-08T06:27:48.952Z,25.07
2022-08-08T06:30:20.276Z,25.72
2022-08-08T06:32:56.843Z,26.34
2022-08-08T06:36:08.855Z,26.33
2022-08-08T06:38:16.660Z,26.37
2022-08-08T06:40:48.742Z,26.12
2022-08-08T06:43:28.495Z,26.47
2022-08-08T06:45:57.757Z,26.86
2022-08-08T06:48:26.697Z,26.97
2022-08-08T06:50:55.699Z,27.54
2022-08-08T06:53:23.061Z,27.38
2022-08-08T06:56:02.853Z,27.80
2022-08-08T06:58:33.221Z,27.40
2022-08-08T07:01:11.593Z,26.73
2022-08-08T07:04:40.370Z,25.82
2022-08-08T07:07:10.353Z,25.93
2022-08-08T07:10:07.979Z,26.21
2022-08-08T07:12:47.698Z,26.33
2022-08-08T07:15:32.427Z,27.02
2022-08-08T07:18:37.114Z,27.54
2022-08-08T07:20:57.533Z,27.82
2022-08-08T07:24:01.726Z,27.35
2022-08-08T07:26:32.889Z,27.65
2022-08-08T07:29:05.952Z,27.40
2022-08-08T07:31:40.575Z,27.43
2022-08-08T07:34:09.240Z,27.91
2022-08-08T07:38:37.954Z,27.59
2022-08-08T07:41:06.914Z,27.26
2022-08-08T07:43:51.211Z,27.44
2022-08-08T07:46:30.615Z,27.06
2022-08-08T07:48:57.882Z,27.10
2022-08-08T07:51:45.141Z,26.59
2022-08-08T07:54:40.672Z,26.18
2022-08-08T07:57:48.614Z,25.31
2022-08-08T08:00:17.251Z,25.65
2022-08-08T08:02:45.491Z,25.71
2022-08-08T08:05:22.473Z,25.94
2022-08-08T08:08:02.949Z,26.50
2022-08-08T08:10:33.404Z,27.25
2022-08-08T08:14:06.494Z,27.74
2022-08-08T08:16:19.428Z,27.95
2022-08-08T08:18:56.703Z,28.59
2022-08-08T08:21:43.948Z,29.35
2022-08-08T08:24:15.691Z,29.11
2022-08-08T08:26:46.777Z,28.90
2022-08-08T08:29:19.529Z,28.99
2022-08-08T08:31:46.410Z,29.20
2022-08-08T08:34:21.957Z,29.47
2022-08-08T08:36:51.511Z,29.50
2022-08-08T08:39:23.062Z,29.24
2022-08-08T08:41:50.957Z,29.57
2022-08-08T08:44:19.441Z,29.69
2022-08-08T08:46:58.527Z,29.37
2022-08-08T08:49:27.708Z,29.89
2022-08-08T08:52:02.009Z,29.37
2022-08-08T08:54:34.989Z,28.87
2022-08-08T08:57:15.702Z,28.00
2022-08-08T09:00:00.278Z,27.11
2022-08-08T09:02:35.670Z,26.10
2022-08-08T09:05:07.993Z,25.79
2022-08-08T09:08:12.841Z,25.31
2022-08-08T09:10:48.005Z,25.25
2022-08-08T09:13:25.115Z,25.66
2022-08-08T09:16:03.354Z,26.16
2022-08-08T09:18:34.342Z,25.89
2022-08-08T09:21:56.669Z,25.41
2022-08-08T09:23:49.887Z,25.58
2022-08-08T09:26:27.056Z,25.48
2022-08-08T09:29:07.960Z,25.10
2022-08-08T09:32:00.669Z,24.46
2022-08-08T09:34:34.463Z,24.59
2022-08-08T09:40:11.185Z,24.76
2022-08-08T09:42:43.864Z,24.60
2022-08-08T09:46:02.163Z,24.89
2022-08-08T09:48:26.134Z,25.18
2022-08-08T09:51:05.227Z,25.41
2022-08-08T09:54:01.212Z,25.74
2022-08-08T09:56:45.369Z,25.87
2022-08-08T09:59:50.581Z,25.79
2022-08-08T10:02:14.526Z,25.60
2022-08-08T10:04:47.850Z,25.54
2022-08-08T10:07:16.566Z,25.31
2022-08-08T10:10:00.729Z,25.58
2022-08-08T10:12:37.883Z,25.53
2022-08-08T10:15:19.556Z,25.36
2022-08-08T10:18:05.540Z,25.18
2022-08-08T10:20:58.133Z,25.22
2022-08-08T10:23:44.115Z,25.12
2022-08-08T10:26:30.205Z,24.91
2022-08-08T10:29:06.405Z,24.28
2022-08-08T10:31:54.974Z,24.58
2022-08-08T10:34:23.904Z,24.36
2022-08-08T10:36:51.749Z,24.39
2022-08-08T10:39:43.493Z,24.53
2022-08-08T10:42:19.394Z,24.52
2022-08-08T10:44:49.384Z,24.40
2022-08-08T10:47:21.070Z,24.26
2022-08-08T10:50:02.241Z,24.30
2022-08-08T10:52:37.968Z,24.32
2022-08-08T10:55:13.863Z,24.21
2022-08-08T10:57:53.022Z,24.47
2022-08-08T11:00:27.724Z,24.54
2022-08-08T11:02:57.331Z,24.43
2022-08-08T11:05:24.538Z,24.38
2022-08-08T11:08:37.756Z,24.22
2022-08-08T11:10:41.227Z,24.10
2022-08-08T11:16:00.913Z,24.03
2022-08-08T11:18:37.652Z,23.89
2022-08-08T11:21:09.857Z,24.04
2022-08-08T11:23:41.542Z,24.18
2022-08-08T11:26:12.656Z,24.19
2022-08-08T11:28:47.029Z,24.08
2022-08-08T11:31:16.237Z,23.93
2022-08-08T11:33:53.481Z,24.01
2022-08-08T11:36:29.554Z,23.70
2022-08-08T11:40:31.960Z,23.77
2022-08-08T11:43:00.369Z,23.62
2022-08-08T11:45:27.781Z,23.49
2022-08-08T11:48:05.147Z,23.49
2022-08-08T11:50:37.015Z,23.59
2022-08-08T11:53:05.886Z,23.64
2022-08-08T11:55:36.355Z,23.67
2022-08-08T11:58:14.990Z,23.73
2022-08-08T12:00:47.287Z,23.69
2022-08-08T12:03:21.444Z,23.74
2022-08-08T12:05:48.639Z,23.90
2022-08-08T12:08:16.601Z,24.02
2022-08-08T12:10:51.032Z,24.13
2022-08-08T12:13:38.379Z,24.05
2022-08-08T12:16:18.069Z,23.83
2022-08-08T12:18:55.907Z,23.81
2022-08-08T12:21:58.534Z,23.69
2022-08-08T12:24:20.105Z,23.62
2022-08-08T12:26:54.435Z,23.61
2022-08-08T12:29:40.026Z,23.77
2022-08-08T12:32:09.812Z,23.57
2022-08-08T12:34:45.168Z,23.55
2022-08-08T12:37:21.086Z,23.56
2022-08-08T12:40:01.235Z,23.75
2022-08-08T12:42:33.694Z,23.89
2022-08-08T12:45:58.421Z,23.85
2022-08-08T12:48:10.334Z,23.67
2022-08-08T12:50:52.061Z,23.81
2022-08-08T12:53:37.852Z,23.58
2022-08-08T12:56:19.054Z,23.21
2022-08-08T12:58:46.509Z,23.28
2022-08-08T13:01:14.179Z,23.42
2022-08-08T13:03:51.851Z,23.57
2022-08-08T13:06:20.424Z,23.67
2022-08-08T13:08:53.608Z,23.76
2022-08-08T13:12:24.704Z,23.93
2022-08-08T13:14:52.604Z,24.10
2022-08-08T13:18:08.973Z,24.05
2022-08-08T13:20:18.120Z,23.96
2022-08-08T13:22:45.898Z,23.77
2022-08-08T13:25:22.068Z,23.65
2022-08-08T13:27:53.345Z,23.58
2022-08-08T13:30:28.217Z,23.58
2022-08-08T13:32:58.855Z,23.55
2022-08-08T13:35:38.279Z,23.54
2022-08-08T13:41:38.108Z,23.50
2022-08-08T13:44:12.103Z,23.42
2022-08-08T13:46:38.899Z,23.40
2022-08-08T13:50:35.883Z,23.37
2022-08-08T13:52:09.565Z,23.42
2022-08-08T13:54:49.306Z,23.57
2022-08-08T13:57:16.736Z,23.57
2022-08-08T13:59:48.647Z,23.51
2022-08-08T14:02:15.760Z,23.52
2022-08-08T14:04:56.222Z,23.25
2022-08-08T14:07:29.944Z,23.40
2022-08-08T14:10:04.343Z,23.25
2022-08-08T14:12:43.685Z,23.11
2022-08-08T14:15:31.377Z,23.18
2022-08-08T14:18:35.215Z,23.10
2022-08-08T14:21:02.761Z,22.92
2022-08-08T14:24:06.760Z,22.91
2022-08-08T14:26:28.387Z,22.93
2022-08-08T14:28:57.899Z,22.97
2022-08-08T14:32:07.118Z,22.92
2022-08-08T14:34:22.867Z,22.90
2022-08-08T14:36:53.498Z,22.80
2022-08-08T14:39:24.797Z,22.76
2022-08-08T14:41:59.628Z,22.73
2022-08-08T14:44:35.156Z,22.67
2022-08-08T14:47:02.757Z,22.68
2022-08-08T14:50:06.891Z,22.71
2022-08-08T14:52:41.454Z,22.72
2022-08-08T14:55:10.684Z,22.81
2022-08-08T14:58:02.829Z,22.86
2022-08-08T15:00:27.476Z,23.03
2022-08-08T15:02:58.816Z,23.10
2022-08-08T15:05:42.924Z,23.22
2022-08-08T15:08:22.125Z,23.29
2022-08-08T15:11:00.802Z,23.29
2022-08-08T15:13:27.519Z,23.31
2022-08-08T15:16:11.664Z,23.18
2022-08-08T15:18:40.499Z,23.20
2022-08-08T15:21:16.725Z,23.22
2022-08-08T15:23:43.655Z,23.16
2022-08-08T15:26:17.365Z,23.20
2022-08-08T15:28:43.985Z,23.14
2022-08-08T15:31:21.693Z,23.10
2022-08-08T15:34:00.122Z,23.10
2022-08-08T15:36:28.770Z,23.09
2022-08-08T15:38:56.132Z,23.14
2022-08-08T15:42:41.124Z,22.85
2022-08-08T15:45:08.477Z,22.88
2022-08-08T15:47:35.316Z,22.89
2022-08-08T15:50:02.454Z,22.98
2022-08-08T15:52:29.319Z,23.05
2022-08-08T15:54:56.082Z,22.97
2022-08-08T15:57:23.447Z,23.00
2022-08-08T16:00:06.472Z,23.03
2022-08-08T16:02:44.032Z,23.01
2022-08-08T16:05:16.888Z,22.99
2022-08-08T16:07:52.638Z,22.90
2022-08-08T16:13:14.781Z,22.86
2022-08-08T16:13:30.979Z,22.67
2022-08-08T16:16:16.523Z,22.60
2022-08-08T16:18:56.702Z,22.58
2022-08-08T16:21:26.965Z,22.54
2022-08-08T16:23:55.836Z,22.43
2022-08-08T16:26:34.720Z,22.33
2022-08-08T16:29:08.698Z,22.23
2022-08-08T16:31:40.476Z,22.17
2022-08-08T16:34:07.194Z,22.09
2022-08-08T16:36:38.111Z,21.99
2022-08-08T16:39:09.858Z,21.88
2022-08-08T16:41:53.917Z,21.85
2022-08-08T16:44:34.172Z,21.75
2022-08-08T16:47:40.703Z,21.77
2022-08-08T16:50:14.160Z,21.76
2022-08-08T16:55:03.227Z,21.76
2022-08-08T16:55:55.387Z,21.73
2022-08-08T16:58:25.492Z,21.71
2022-08-08T17:00:53.293Z,21.61
2022-08-08T17:03:25.350Z,21.60
2022-08-08T17:06:37.591Z,21.51
2022-08-08T17:08:55.294Z,21.47
2022-08-08T17:11:28.253Z,21.41
2022-08-08T17:14:05.520Z,21.41
2022-08-08T17:16:44.538Z,21.26
2022-08-08T17:19:25.718Z,21.21
2022-08-08T17:21:53.689Z,21.16
2022-08-08T17:24:27.052Z,21.11
2022-08-08T17:26:58.074Z,21.05
2022-08-08T17:29:27.482Z,20.95
2022-08-08T17:31:54.954Z,20.83
2022-08-08T17:34:49.772Z,20.65
2022-08-08T17:37:13.520Z,20.54
2022-08-08T17:40:04.334Z,20.44
2022-08-08T17:44:00.849Z,20.20
2022-08-08T17:46:38.818Z,20.05
2022-08-08T17:49:08.023Z,19.87
2022-08-08T17:51:37.485Z,19.70
2022-08-08T17:54:06.655Z,19.53
2022-08-08T17:56:44.428Z,-144.48
2022-08-08T17:59:13.652Z,-144.48
2022-08-08T18:01:51.183Z,-144.48
2022-08-08T18:04:28.852Z,-144.48
2022-08-08T18:06:59.651Z,-144.48
2022-08-08T18:09:37.874Z,-144.48
2022-08-08T18:12:10.122Z,-144.48
2022-08-08T18:14:40.789Z,-144.48
2022-08-08T18:17:17.267Z,-144.48
2022-08-08T18:20:37.279Z,-144.48
2022-08-08T18:22:50.731Z,-144.48
2022-08-08T18:25:19.066Z,-144.48
2022-08-08T18:27:45.957Z,-144.48
2022-08-08T18:30:13.630Z,-144.48
2022-08-08T18:32:41.980Z,-144.48
2022-08-08T18:35:15.682Z,-144.48
2022-08-08T18:37:48.054Z,-144.48
2022-08-08T18:40:15.753Z,-144.48
2022-08-08T18:42:45.759Z,-144.48
2022-08-08T18:46:06.238Z,-144.48
2022-08-08T18:48:09.445Z,-144.48
2022-08-08T18:50:39.719Z,-144.48
2022-08-08T18:53:18.361Z,-144.48
2022-08-08T18:55:47.671Z,-144.48
2022-08-08T18:58:14.969Z,-144.48
2022-08-08T19:00:46.567Z,-144.48
2022-08-08T19:03:27.913Z,-144.48
2022-08-08T19:06:14.697Z,-144.48
2022-08-08T19:08:45.303Z,-144.48
2022-08-08T19:11:12.176Z,-144.48
2022-08-08T19:13:56.829Z,-144.48
2022-08-08T19:16:28.524Z,-144.48
2022-08-08T19:19:09.718Z,-144.48
2022-08-08T19:21:49.743Z,-144.48
2022-08-08T19:24:39.446Z,-144.48
2022-08-08T19:27:09.106Z,-144.48
2022-08-08T19:29:45.848Z,-144.48
2022-08-08T19:32:19.275Z,-144.48
2022-08-08T19:34:51.543Z,-144.48
2022-08-08T19:37:42.344Z,-144.48
2022-08-08T19:40:16.448Z,-144.48
2022-08-08T19:44:42.997Z,14.74
2022-08-08T19:47:13.000Z,14.66
2022-08-08T19:49:39.830Z,14.60
2022-08-08T19:52:11.849Z,14.55
2022-08-08T19:54:40.036Z,14.47
2022-08-08T19:57:09.808Z,14.41
2022-08-08T19:59:41.835Z,14.36
2022-08-08T20:02:10.781Z,14.34
2022-08-08T20:04:38.394Z,14.28
2022-08-08T20:08:29.289Z,14.22
2022-08-08T20:09:57.119Z,14.19
2022-08-08T20:12:34.859Z,14.12
2022-08-08T20:15:15.109Z,14.08
2022-08-08T20:17:45.200Z,14.04
2022-08-08T20:20:19.332Z,13.97
2022-08-08T20:22:48.769Z,13.91
2022-08-08T20:25:20.451Z,13.86
2022-08-08T20:27:50.536Z,13.81
2022-08-08T20:30:53.096Z,13.72
2022-08-08T20:33:19.912Z,13.68
2022-08-08T20:35:58.629Z,13.63
2022-08-08T20:38:32.538Z,13.56
2022-08-08T20:41:05.821Z,13.51
2022-08-08T20:43:49.406Z,13.46
2022-08-08T20:46:16.637Z,13.41
2022-08-08T20:48:44.023Z,13.32
2022-08-08T20:51:11.101Z,13.23
2022-08-08T20:54:00.008Z,13.17
2022-08-08T20:56:35.393Z,13.08
2022-08-08T20:59:05.696Z,13.02
2022-08-08T21:02:05.542Z,12.97
2022-08-08T21:04:20.281Z,12.90
2022-08-08T21:06:52.735Z,12.87
2022-08-08T21:09:21.540Z,12.83
2022-08-08T21:11:50.527Z,12.78
2022-08-08T21:14:33.636Z,12.72
2022-08-08T21:17:06.113Z,12.71
2022-08-08T21:19:45.501Z,12.66
2022-08-08T21:22:14.446Z,12.64
2022-08-08T21:24:53.548Z,12.62
2022-08-08T21:28:05.359Z,12.57
2022-08-08T21:30:16.340Z,12.54
2022-08-08T21:32:52.456Z,12.49
2022-08-08T21:36:17.190Z,12.47
2022-08-08T21:38:17.111Z,12.44
2022-08-08T21:40:54.764Z,12.39
2022-08-08T21:48:00.557Z,12.32
2022-08-08T21:48:31.657Z,12.29
2022-08-08T21:51:10.153Z,12.28
2022-08-08T21:54:34.185Z,12.23
2022-08-08T21:56:28.746Z,12.21
2022-08-08T21:59:01.727Z,12.15
2022-08-08T22:01:40.593Z,12.09
2022-08-08T22:04:12.516Z,12.04
2022-08-08T22:06:40.747Z,12.03
2022-08-08T22:09:09.596Z,11.96
2022-08-08T22:11:52.893Z,11.90
2022-08-08T22:14:25.626Z,11.88
2022-08-08T22:16:54.768Z,11.80
2022-08-08T22:19:23.747Z,11.71
2022-08-08T22:21:51.950Z,11.65
2022-08-08T22:24:23.918Z,11.62
2022-08-08T22:27:01.176Z,11.49
2022-08-08T22:29:58.637Z,11.49
2022-08-08T22:32:17.922Z,11.46
2022-08-08T22:34:50.658Z,11.49
2022-08-08T22:37:48.821Z,11.54
2022-08-08T22:40:04.936Z,11.53
2022-08-08T22:42:34.845Z,11.60
2022-08-08T22:45:03.459Z,11.59
2022-08-08T22:47:37.654Z,11.63
2022-08-08T22:50:27.468Z,11.66
2022-08-08T22:52:58.757Z,11.65
2022-08-08T22:55:59.230Z,11.59
2022-08-08T22:58:33.948Z,11.58
2022-08-08T23:02:01.053Z,11.63
2022-08-08T23:03:55.979Z,11.64
2022-08-08T23:06:26.980Z,11.67
2022-08-08T23:08:59.047Z,11.73
2022-08-08T23:11:58.009Z,11.80
2022-08-08T23:14:20.738Z,11.85
2022-08-08T23:16:57.860Z,11.75
2022-08-08T23:19:31.142Z,11.67
2022-08-08T23:21:59.944Z,11.57
2022-08-08T23:24:26.660Z,11.42
2022-08-08T23:27:03.125Z,11.33
2022-08-08T23:29:31.301Z,11.27
2022-08-08T23:31:58.398Z,11.24
2022-08-08T23:34:25.403Z,11.27
2022-08-08T23:36:59.901Z,11.30
2022-08-08T23:39:32.391Z,11.30
2022-08-08T23:42:09.101Z,11.34
2022-08-08T23:49:04.183Z,11.36
2022-08-08T23:49:26.280Z,11.36
2022-08-08T23:52:04.094Z,11.35
2022-08-08T23:54:42.202Z,11.42
2022-08-08T23:57:26.887Z,11.47
